Flight Track Log - Related Links

Times and Time Zones

All times are in EDT time to prevent confusion due to time zone crossing. See the SKW5510 flight status page for this flight to view local times or setup timezone preferences in your user account.

Time Position Orientation Groundspeed Altitude Reporting Facility
EDT Latitude Longitude Course Direction KTS MPH feet Rate Location/Type
Sun 05:52:00 PM 39.8833 -104.6000 75° East 197 227 6,200  Level Denver TRACON
Sun 05:53:06 PM 39.9000 -104.5167 75° East 230 265 8,400 1,810 Climbing Denver TRACON
Sun 05:54:06 PM 39.9333 -104.4500 57° Northeast 272 313 10,000 1,700 Climbing Denver TRACON
Sun 05:55:06 PM 40.0000 -104.4000 30° Northeast 297 342 11,800 1,947 Climbing Denver TRACON
Sun 05:56:00 PM 40.0667 -104.4333 339° North 285 328 13,700 2,083 Climbing Denver TRACON
Sun 05:56:18 PM 40.0950 -104.4508 335° Northwest 291 335 14,300 2,100 Climbing Denver Center
Sun 05:57:20 PM 40.1681 -104.4928 336° Northwest 289 333 16,500 1,935 Climbing Denver Center
Sun 05:58:22 PM 40.2472 -104.5386 336° Northwest 291 335 18,300 1,500 Climbing Denver Center
Sun 05:59:24 PM 40.3219 -104.5811 337° Northwest 295 339 19,600 1,306 Climbing Denver Center
Sun 06:00:26 PM 40.4069 -104.6294 337° Northwest 312 359 21,000 1,235 Climbing Denver Center
Sun 06:01:40 PM 40.4847 -104.6756 336° Northwest 306 352 22,400 1,051 Climbing Denver Center
Sun 06:02:43 PM 40.5847 -104.7331 336° Northwest 319 367 23,400 768 Climbing Denver Center
Sun 06:03:45 PM 40.6781 -104.7894 335° Northwest 342 394 24,000 823 Climbing Denver Center
Sun 06:04:47 PM 40.7700 -104.8389 338° Northwest 341 392 25,100 919 Climbing Denver Center
Sun 06:05:49 PM 40.8611 -104.8839 340° North 350 403 25,900 774 Climbing Denver Center
Sun 06:06:51 PM 40.9531 -104.9294 339° North 354 407 26,700 774 Climbing Denver Center
Sun 06:07:53 PM 41.0550 -104.9797 340° North 359 413 27,500 629 Climbing Denver Center
Sun 06:08:55 PM 41.1447 -105.0250 339° North 361 415 28,000 629 Climbing Denver Center
Sun 06:09:57 PM 41.2500 -105.0756 340° North 361 415 28,800 774 Climbing Denver Center
Sun 06:10:59 PM 41.3408 -105.1211 339° North 363 418 29,600 823 Climbing Denver Center
Sun 06:12:01 PM 41.4461 -105.1750 339° North 362 417 30,500 726 Climbing Denver Center
Sun 06:13:03 PM 41.5369 -105.2203 340° North 364 419 31,100 581 Climbing Denver Center
Sun 06:14:05 PM 41.6294 -105.3036 326° Northwest 361 415 31,700 435 Climbing Denver Center
Sun 06:15:07 PM 41.7053 -105.3878 320° Northwest 366 421 32,000 145 Climbing Denver Center
Sun 06:16:09 PM 41.7803 -105.4689 321° Northwest 364 419 32,000  Level Denver Center
Sun 06:17:11 PM 41.8658 -105.5606 321° Northwest 353 406 32,000  Level Denver Center
Sun 06:18:12 PM 41.9361 -105.6375 321° Northwest 343 395 32,000  Level Denver Center
Sun 06:19:14 PM 42.0053 -105.7139 321° Northwest 337 388 32,000  Level Denver Center
Sun 06:20:16 PM 42.0767 -105.7911 321° Northwest 339 390 32,000  Level Denver Center
Sun 06:21:18 PM 42.1697 -105.8950 320° Northwest 342 394 32,000  Level Denver Center
Sun 06:22:20 PM 42.2411 -105.9739 321° Northwest 346 398 32,000  Level Denver Center
Sun 06:23:22 PM 42.3253 -106.0664 321° Northwest 349 402 32,000  Level Denver Center
Sun 06:24:24 PM 42.3961 -106.1456 320° Northwest 346 398 32,000  Level Denver Center
Sun 06:25:26 PM 42.4686 -106.2244 321° Northwest 347 399 32,000  Level Denver Center
Sun 06:26:28 PM 42.5511 -106.3183 320° Northwest 348 400 32,000  Level Denver Center
Sun 06:27:30 PM 42.6211 -106.3983 320° Northwest 345 397 32,000  Level Denver Center
Sun 06:28:32 PM 42.7025 -106.4906 320° Northwest 342 394 32,000  Level Denver Center
Sun 06:29:34 PM 42.7725 -106.5689 321° Northwest 340 391 32,000  Level Denver Center
Sun 06:30:36 PM 42.8539 -106.6614 320° Northwest 343 395 32,000  Level Denver Center
Sun 06:31:38 PM 42.9236 -106.7400 320° Northwest 342 394 32,000  Level Denver Center
Sun 06:32:40 PM 43.0039 -106.8322 320° Northwest 338 389 32,000  Level Denver Center
Sun 06:33:42 PM 43.0733 -106.9117 320° Northwest 340 391 32,000  Level Denver Center
Sun 06:34:15 PM 43.1072 -106.9531 318° Northwest 336 387 32,000  Level Salt Center
Sun 06:34:44 PM 43.1539 -107.0042 321° Northwest 339 390 32,000  Level Denver Center
Sun 06:35:46 PM 43.2244 -107.0856 320° Northwest 342 394 32,000  Level Denver Center
Sun 06:36:18 PM 43.2586 -107.1283 318° Northwest 345 397 32,000  Level Salt Center
Sun 06:37:20 PM 43.3408 -107.2225 320° Northwest 347 399 32,000  Level Salt Center
Sun 06:38:02 PM 43.3881 -107.2772 320° Northwest 347 399 32,000  Level Denver Center
Sun 06:39:04 PM 43.4717 -107.3717 321° Northwest 348 400 32,000  Level Denver Center
Sun 06:39:23 PM 43.4939 -107.4014 316° Northwest 347 399 32,000 -741 Level Salt Center
Sun 06:40:25 PM 43.5650 -107.4856 319° Northwest 353 406 31,000 -1,258 Descending Salt Center
Sun 06:41:27 PM 43.6331 -107.5661 319° Northwest 340 391 29,400 -1,707 Descending Salt Center
Sun 06:42:28 PM 43.7078 -107.6561 319° Northwest 322 371 27,500 -1,659 Descending Salt Center
Sun 06:43:30 PM 43.7692 -107.7269 320° Northwest 302 348 26,000 -1,548 Descending Salt Center
Sun 06:44:32 PM 43.8364 -107.8064 320° Northwest 284 327 24,300 -1,512 Descending Salt Center
Sun 06:45:33 PM 43.8900 -107.8703 319° Northwest 268 308 22,900 -1,512 Descending Salt Center
Sun 06:46:35 PM 43.9508 -107.9431 319° Northwest 261 300 21,200 -1,548 Descending Salt Center
Sun 06:47:37 PM 43.9994 -108.0019 319° Northwest 244 281 19,700 -1,415 Descending Salt Center
Sun 06:48:38 PM 44.0408 -108.0658 312° West 235 270 18,300 -1,561 Descending Salt Center
Sun 06:49:40 PM 44.0897 -108.1414 312° West 235 270 16,500 -1,452 Descending Salt Center
Sun 06:50:42 PM 44.1300 -108.2036 312° West 231 266 15,300 -1,220 Descending Salt Center
Sun 06:51:43 PM 44.1767 -108.2739 313° West 226 260 14,000 -1,122 Descending Salt Center
Sun 06:52:45 PM 44.2175 -108.3372 312° West 226 260 13,000 -976 Descending Salt Center
Sun 06:53:46 PM 44.2592 -108.4022 312° West 230 265 12,000 -976 Descending Salt Center
Sun 06:54:48 PM 44.3078 -108.4772 312° West 232 267 11,000 -871 Descending Salt Center
Sun 06:55:50 PM 44.3492 -108.5425 312° West 232 267 10,200 -488 Descending Salt Center
Sun 06:56:51 PM 44.4011 -108.6233 312° West 240 276 10,000 -341 Descending Salt Center
Sun 06:57:53 PM 44.4439 -108.6867 313° West 240 276 9,500 -732 Descending Salt Center
Sun 06:58:54 PM 44.4775 -108.7578 304° West 234 269 8,500 -1,073 Descending Salt Center
Sun 06:59:56 PM 44.5106 -108.8422 299° West 228 262 7,300 -927 Descending Salt Center
Sun 07:00:57 PM 44.5275 -108.9044 291° West 204 235 6,600 -683 Descending Salt Center
Sun 07:01:59 PM 44.5439 -108.9644 291° West 167 192 5,900 -439 Descending Salt Center
Sun 07:03:00 PM 44.5528 -109.0092 286° West 160 184 5,700 -197 Descending Salt Center
Sun 07:04:00 PM 44.5167 -109.0167 200° South  Level FlightAware
Sun 07:11:00 PM 44.5202 -109.0238 200° South  Level Estimated

Login

Don't have an account? Register now (free) for customized features, flight alerts, and more!